sensor_id;sensor_type;location;lat;lon;timestamp;P1;durP1;ratioP1;P2;durP2;ratioP2
37647;SDS011;23490;53.656;10.076;2022-09-06T00:00:22;2.45;;;0.85;;
37647;SDS011;23490;53.656;10.076;2022-09-06T00:02:48;1.42;;;0.80;;
37647;SDS011;23490;53.656;10.076;2022-09-06T00:05:14;5.47;;;1.13;;
37647;SDS011;23490;53.656;10.076;2022-09-06T00:07:39;3.88;;;0.90;;
37647;SDS011;23490;53.656;10.076;2022-09-06T00:10:05;2.40;;;0.80;;
37647;SDS011;23490;53.656;10.076;2022-09-06T00:12:31;2.35;;;1.20;;
37647;SDS011;23490;53.656;10.076;2022-09-06T00:14:56;2.78;;;1.08;;
37647;SDS011;23490;53.656;10.076;2022-09-06T00:17:22;1.52;;;0.70;;
37647;SDS011;23490;53.656;10.076;2022-09-06T00:19:47;1.92;;;0.80;;
37647;SDS011;23490;53.656;10.076;2022-09-06T00:22:13;4.07;;;1.00;;
37647;SDS011;23490;53.656;10.076;2022-09-06T00:24:38;2.20;;;0.90;;
37647;SDS011;23490;53.656;10.076;2022-09-06T00:27:04;1.42;;;0.90;;
37647;SDS011;23490;53.656;10.076;2022-09-06T00:29:31;1.45;;;0.90;;
37647;SDS011;23490;53.656;10.076;2022-09-06T00:31:56;5.32;;;1.15;;
37647;SDS011;23490;53.656;10.076;2022-09-06T00:34:23;3.35;;;0.88;;
37647;SDS011;23490;53.656;10.076;2022-09-06T00:36:48;2.47;;;1.00;;
37647;SDS011;23490;53.656;10.076;2022-09-06T00:39:13;1.75;;;0.75;;
37647;SDS011;23490;53.656;10.076;2022-09-06T00:41:39;2.08;;;1.17;;
37647;SDS011;23490;53.656;10.076;2022-09-06T00:44:04;3.10;;;0.90;;
37647;SDS011;23490;53.656;10.076;2022-09-06T00:46:30;2.47;;;0.80;;
37647;SDS011;23490;53.656;10.076;2022-09-06T00:51:54;2.40;;;0.95;;
37647;SDS011;23490;53.656;10.076;2022-09-06T00:54:25;1.73;;;0.80;;
37647;SDS011;23490;53.656;10.076;2022-09-06T00:56:51;4.72;;;1.13;;
37647;SDS011;23490;53.656;10.076;2022-09-06T00:59:16;1.95;;;0.90;;
37647;SDS011;23490;53.656;10.076;2022-09-06T01:01:42;2.80;;;1.20;;
37647;SDS011;23490;53.656;10.076;2022-09-06T01:04:07;2.35;;;0.90;;
37647;SDS011;23490;53.656;10.076;2022-09-06T01:17:47;1.80;;;1.00;;
37647;SDS011;23490;53.656;10.076;2022-09-06T01:20:26;1.55;;;1.10;;
37647;SDS011;23490;53.656;10.076;2022-09-06T01:23:10;2.00;;;1.27;;
37647;SDS011;23490;53.656;10.076;2022-09-06T01:29:01;3.83;;;1.15;;
37647;SDS011;23490;53.656;10.076;2022-09-06T01:31:34;2.70;;;1.27;;
37647;SDS011;23490;53.656;10.076;2022-09-06T01:36:32;3.65;;;1.10;;
37647;SDS011;23490;53.656;10.076;2022-09-06T01:39:03;2.53;;;1.00;;
37647;SDS011;23490;53.656;10.076;2022-09-06T01:41:28;3.17;;;1.30;;
37647;SDS011;23490;53.656;10.076;2022-09-06T01:43:55;1.73;;;0.98;;
37647;SDS011;23490;53.656;10.076;2022-09-06T01:46:35;2.00;;;1.10;;
37647;SDS011;23490;53.656;10.076;2022-09-06T01:49:22;3.17;;;1.00;;
37647;SDS011;23490;53.656;10.076;2022-09-06T01:52:13;3.45;;;1.20;;
37647;SDS011;23490;53.656;10.076;2022-09-06T01:57:34;2.58;;;1.15;;
37647;SDS011;23490;53.656;10.076;2022-09-06T02:00:13;4.32;;;1.17;;
37647;SDS011;23490;53.656;10.076;2022-09-06T02:05:33;4.40;;;1.10;;
37647;SDS011;23490;53.656;10.076;2022-09-06T02:08:09;2.88;;;1.00;;
37647;SDS011;23490;53.656;10.076;2022-09-06T02:13:06;4.80;;;1.30;;
37647;SDS011;23490;53.656;10.076;2022-09-06T02:15:34;7.18;;;1.10;;
37647;SDS011;23490;53.656;10.076;2022-09-06T02:18:11;1.48;;;1.00;;
37647;SDS011;23490;53.656;10.076;2022-09-06T02:20:41;2.85;;;1.10;;
37647;SDS011;23490;53.656;10.076;2022-09-06T02:23:13;2.28;;;1.13;;
37647;SDS011;23490;53.656;10.076;2022-09-06T02:25:41;3.47;;;1.25;;
37647;SDS011;23490;53.656;10.076;2022-09-06T02:28:11;1.85;;;1.10;;
37647;SDS011;23490;53.656;10.076;2022-09-06T02:30:44;2.45;;;1.13;;
37647;SDS011;23490;53.656;10.076;2022-09-06T02:33:14;4.38;;;1.10;;
37647;SDS011;23490;53.656;10.076;2022-09-06T02:38:09;1.50;;;0.98;;
37647;SDS011;23490;53.656;10.076;2022-09-06T02:40:35;3.42;;;1.38;;
37647;SDS011;23490;53.656;10.076;2022-09-06T02:43:00;4.05;;;1.10;;
37647;SDS011;23490;53.656;10.076;2022-09-06T02:45:26;8.05;;;1.30;;
37647;SDS011;23490;53.656;10.076;2022-09-06T02:47:51;3.75;;;1.13;;
37647;SDS011;23490;53.656;10.076;2022-09-06T02:50:16;2.95;;;1.25;;
37647;SDS011;23490;53.656;10.076;2022-09-06T02:52:42;4.90;;;1.25;;
37647;SDS011;23490;53.656;10.076;2022-09-06T02:55:07;3.13;;;1.40;;
37647;SDS011;23490;53.656;10.076;2022-09-06T02:57:32;3.75;;;1.10;;
37647;SDS011;23490;53.656;10.076;2022-09-06T02:59:58;5.38;;;1.48;;
37647;SDS011;23490;53.656;10.076;2022-09-06T03:02:23;2.50;;;1.10;;
37647;SDS011;23490;53.656;10.076;2022-09-06T03:04:48;2.28;;;1.20;;
37647;SDS011;23490;53.656;10.076;2022-09-06T03:07:14;4.25;;;1.35;;
37647;SDS011;23490;53.656;10.076;2022-09-06T03:09:39;2.05;;;0.95;;
37647;SDS011;23490;53.656;10.076;2022-09-06T03:12:05;2.63;;;1.30;;
37647;SDS011;23490;53.656;10.076;2022-09-06T03:14:30;1.92;;;1.08;;
37647;SDS011;23490;53.656;10.076;2022-09-06T03:16:56;2.22;;;1.15;;
37647;SDS011;23490;53.656;10.076;2022-09-06T03:19:21;2.35;;;1.15;;
37647;SDS011;23490;53.656;10.076;2022-09-06T03:21:47;4.85;;;1.27;;
37647;SDS011;23490;53.656;10.076;2022-09-06T03:24:12;3.85;;;1.10;;
37647;SDS011;23490;53.656;10.076;2022-09-06T03:26:37;4.22;;;1.30;;
37647;SDS011;23490;53.656;10.076;2022-09-06T03:29:03;1.38;;;1.00;;
37647;SDS011;23490;53.656;10.076;2022-09-06T03:31:28;3.60;;;1.15;;
37647;SDS011;23490;53.656;10.076;2022-09-06T03:33:53;5.68;;;1.13;;
37647;SDS011;23490;53.656;10.076;2022-09-06T03:36:19;5.22;;;1.38;;
37647;SDS011;23490;53.656;10.076;2022-09-06T03:38:44;3.80;;;1.20;;
37647;SDS011;23490;53.656;10.076;2022-09-06T03:41:09;2.83;;;1.20;;
37647;SDS011;23490;53.656;10.076;2022-09-06T03:43:35;2.83;;;1.00;;
37647;SDS011;23490;53.656;10.076;2022-09-06T03:46:00;4.53;;;1.20;;
37647;SDS011;23490;53.656;10.076;2022-09-06T03:48:27;3.55;;;1.23;;
37647;SDS011;23490;53.656;10.076;2022-09-06T03:50:54;3.67;;;1.08;;
37647;SDS011;23490;53.656;10.076;2022-09-06T03:53:22;3.35;;;1.20;;
37647;SDS011;23490;53.656;10.076;2022-09-06T03:55:49;4.30;;;1.30;;
37647;SDS011;23490;53.656;10.076;2022-09-06T03:58:16;2.63;;;0.98;;
37647;SDS011;23490;53.656;10.076;2022-09-06T04:00:43;3.08;;;1.58;;
37647;SDS011;23490;53.656;10.076;2022-09-06T04:03:09;2.03;;;1.30;;
37647;SDS011;23490;53.656;10.076;2022-09-06T04:05:34;2.00;;;1.08;;
37647;SDS011;23490;53.656;10.076;2022-09-06T04:08:00;4.85;;;1.20;;
37647;SDS011;23490;53.656;10.076;2022-09-06T04:10:26;3.63;;;1.20;;
37647;SDS011;23490;53.656;10.076;2022-09-06T04:12:51;4.85;;;1.30;;
37647;SDS011;23490;53.656;10.076;2022-09-06T04:15:17;2.45;;;0.85;;
37647;SDS011;23490;53.656;10.076;2022-09-06T04:17:43;3.03;;;1.25;;
37647;SDS011;23490;53.656;10.076;2022-09-06T04:20:10;3.63;;;1.35;;
37647;SDS011;23490;53.656;10.076;2022-09-06T04:22:35;1.63;;;0.90;;
37647;SDS011;23490;53.656;10.076;2022-09-06T04:25:00;2.63;;;1.00;;
37647;SDS011;23490;53.656;10.076;2022-09-06T04:27:27;1.33;;;0.80;;
37647;SDS011;23490;53.656;10.076;2022-09-06T04:29:52;1.63;;;0.95;;
37647;SDS011;23490;53.656;10.076;2022-09-06T04:32:18;7.55;;;1.30;;
37647;SDS011;23490;53.656;10.076;2022-09-06T04:34:43;5.80;;;1.40;;
37647;SDS011;23490;53.656;10.076;2022-09-06T04:37:08;2.35;;;0.85;;
37647;SDS011;23490;53.656;10.076;2022-09-06T04:39:34;5.35;;;1.20;;
37647;SDS011;23490;53.656;10.076;2022-09-06T04:41:59;3.72;;;1.10;;
37647;SDS011;23490;53.656;10.076;2022-09-06T04:44:25;2.22;;;1.17;;
37647;SDS011;23490;53.656;10.076;2022-09-06T04:46:50;5.15;;;1.20;;
37647;SDS011;23490;53.656;10.076;2022-09-06T04:49:29;2.95;;;1.10;;
37647;SDS011;23490;53.656;10.076;2022-09-06T04:51:54;3.55;;;1.45;;
37647;SDS011;23490;53.656;10.076;2022-09-06T04:54:20;2.03;;;1.05;;
37647;SDS011;23490;53.656;10.076;2022-09-06T04:56:45;3.00;;;1.00;;
37647;SDS011;23490;53.656;10.076;2022-09-06T04:59:10;4.03;;;1.10;;
37647;SDS011;23490;53.656;10.076;2022-09-06T05:01:35;3.17;;;1.02;;
37647;SDS011;23490;53.656;10.076;2022-09-06T05:04:01;3.33;;;1.23;;
37647;SDS011;23490;53.656;10.076;2022-09-06T05:06:26;1.95;;;1.20;;
37647;SDS011;23490;53.656;10.076;2022-09-06T05:08:52;1.67;;;0.95;;
37647;SDS011;23490;53.656;10.076;2022-09-06T05:11:17;3.20;;;1.00;;
37647;SDS011;23490;53.656;10.076;2022-09-06T05:13:44;2.90;;;1.00;;
37647;SDS011;23490;53.656;10.076;2022-09-06T05:16:10;3.80;;;1.15;;
37647;SDS011;23490;53.656;10.076;2022-09-06T05:18:36;2.17;;;1.02;;
37647;SDS011;23490;53.656;10.076;2022-09-06T05:21:01;5.63;;;1.30;;
37647;SDS011;23490;53.656;10.076;2022-09-06T05:23:27;3.33;;;1.00;;
37647;SDS011;23490;53.656;10.076;2022-09-06T05:25:53;2.80;;;1.00;;
37647;SDS011;23490;53.656;10.076;2022-09-06T05:28:18;1.92;;;1.13;;
37647;SDS011;23490;53.656;10.076;2022-09-06T05:30:44;3.08;;;1.20;;
37647;SDS011;23490;53.656;10.076;2022-09-06T05:33:10;6.03;;;1.10;;
37647;SDS011;23490;53.656;10.076;2022-09-06T05:35:37;3.03;;;1.00;;
37647;SDS011;23490;53.656;10.076;2022-09-06T05:38:02;4.00;;;1.20;;
37647;SDS011;23490;53.656;10.076;2022-09-06T05:40:28;1.58;;;0.90;;
37647;SDS011;23490;53.656;10.076;2022-09-06T05:42:53;2.42;;;1.05;;
37647;SDS011;23490;53.656;10.076;2022-09-06T05:45:19;3.45;;;0.90;;
37647;SDS011;23490;53.656;10.076;2022-09-06T05:47:44;4.30;;;1.10;;
37647;SDS011;23490;53.656;10.076;2022-09-06T05:50:10;8.05;;;1.35;;
37647;SDS011;23490;53.656;10.076;2022-09-06T05:52:36;5.93;;;1.23;;
37647;SDS011;23490;53.656;10.076;2022-09-06T05:55:02;2.10;;;1.02;;
37647;SDS011;23490;53.656;10.076;2022-09-06T05:57:28;4.82;;;0.90;;
37647;SDS011;23490;53.656;10.076;2022-09-06T05:59:53;3.47;;;0.90;;
37647;SDS011;23490;53.656;10.076;2022-09-06T06:02:19;1.85;;;0.88;;
37647;SDS011;23490;53.656;10.076;2022-09-06T06:04:45;2.05;;;0.85;;
37647;SDS011;23490;53.656;10.076;2022-09-06T06:07:11;2.45;;;1.00;;
37647;SDS011;23490;53.656;10.076;2022-09-06T06:09:36;3.70;;;0.82;;
37647;SDS011;23490;53.656;10.076;2022-09-06T06:12:01;4.78;;;1.13;;
37647;SDS011;23490;53.656;10.076;2022-09-06T06:14:27;2.88;;;0.80;;
37647;SDS011;23490;53.656;10.076;2022-09-06T06:16:52;1.98;;;0.90;;
37647;SDS011;23490;53.656;10.076;2022-09-06T06:19:18;1.50;;;0.90;;
37647;SDS011;23490;53.656;10.076;2022-09-06T06:21:44;4.90;;;1.10;;
37647;SDS011;23490;53.656;10.076;2022-09-06T06:24:09;2.55;;;0.82;;
37647;SDS011;23490;53.656;10.076;2022-09-06T06:26:35;5.43;;;1.02;;
37647;SDS011;23490;53.656;10.076;2022-09-06T06:29:01;3.13;;;1.15;;
37647;SDS011;23490;53.656;10.076;2022-09-06T06:31:28;1.70;;;0.75;;
37647;SDS011;23490;53.656;10.076;2022-09-06T06:33:54;1.52;;;0.80;;
37647;SDS011;23490;53.656;10.076;2022-09-06T06:36:20;1.70;;;0.90;;
37647;SDS011;23490;53.656;10.076;2022-09-06T06:38:48;3.78;;;0.75;;
37647;SDS011;23490;53.656;10.076;2022-09-06T06:41:16;3.50;;;1.00;;
37647;SDS011;23490;53.656;10.076;2022-09-06T06:43:43;3.35;;;0.90;;
37647;SDS011;23490;53.656;10.076;2022-09-06T06:46:12;5.55;;;1.17;;
37647;SDS011;23490;53.656;10.076;2022-09-06T06:48:39;3.58;;;0.90;;
37647;SDS011;23490;53.656;10.076;2022-09-06T06:51:06;2.03;;;0.95;;
37647;SDS011;23490;53.656;10.076;2022-09-06T06:53:32;3.10;;;1.20;;
37647;SDS011;23490;53.656;10.076;2022-09-06T06:55:59;5.35;;;0.90;;
37647;SDS011;23490;53.656;10.076;2022-09-06T06:58:24;6.03;;;1.00;;
37647;SDS011;23490;53.656;10.076;2022-09-06T07:00:50;2.05;;;0.98;;
37647;SDS011;23490;53.656;10.076;2022-09-06T07:03:15;4.07;;;0.85;;
37647;SDS011;23490;53.656;10.076;2022-09-06T07:05:41;3.53;;;1.00;;
37647;SDS011;23490;53.656;10.076;2022-09-06T07:08:09;2.40;;;0.88;;
37647;SDS011;23490;53.656;10.076;2022-09-06T07:10:35;3.00;;;0.80;;
37647;SDS011;23490;53.656;10.076;2022-09-06T07:13:00;3.80;;;0.85;;
37647;SDS011;23490;53.656;10.076;2022-09-06T07:15:26;2.08;;;0.85;;
37647;SDS011;23490;53.656;10.076;2022-09-06T07:17:53;3.80;;;1.15;;
37647;SDS011;23490;53.656;10.076;2022-09-06T07:20:19;4.60;;;0.93;;
37647;SDS011;23490;53.656;10.076;2022-09-06T07:22:45;2.10;;;0.85;;
37647;SDS011;23490;53.656;10.076;2022-09-06T07:25:10;2.90;;;1.00;;
37647;SDS011;23490;53.656;10.076;2022-09-06T07:27:37;3.85;;;1.08;;
37647;SDS011;23490;53.656;10.076;2022-09-06T07:30:03;1.67;;;1.00;;
37647;SDS011;23490;53.656;10.076;2022-09-06T07:32:28;3.10;;;1.02;;
37647;SDS011;23490;53.656;10.076;2022-09-06T07:34:55;3.65;;;1.08;;
37647;SDS011;23490;53.656;10.076;2022-09-06T07:37:20;3.50;;;1.13;;
37647;SDS011;23490;53.656;10.076;2022-09-06T07:39:46;8.43;;;1.05;;
37647;SDS011;23490;53.656;10.076;2022-09-06T07:42:11;3.53;;;1.20;;
37647;SDS011;23490;53.656;10.076;2022-09-06T07:44:36;2.75;;;1.00;;
37647;SDS011;23490;53.656;10.076;2022-09-06T07:47:02;4.00;;;1.15;;
37647;SDS011;23490;53.656;10.076;2022-09-06T07:49:30;2.90;;;1.08;;
37647;SDS011;23490;53.656;10.076;2022-09-06T07:51:58;2.70;;;0.98;;
37647;SDS011;23490;53.656;10.076;2022-09-06T07:54:23;7.07;;;1.33;;
37647;SDS011;23490;53.656;10.076;2022-09-06T07:56:49;3.20;;;1.10;;
37647;SDS011;23490;53.656;10.076;2022-09-06T07:59:14;3.05;;;0.93;;
37647;SDS011;23490;53.656;10.076;2022-09-06T08:01:40;2.25;;;1.13;;
37647;SDS011;23490;53.656;10.076;2022-09-06T08:04:06;3.70;;;1.23;;
37647;SDS011;23490;53.656;10.076;2022-09-06T08:06:34;3.28;;;1.10;;
37647;SDS011;23490;53.656;10.076;2022-09-06T08:09:01;3.10;;;1.17;;
37647;SDS011;23490;53.656;10.076;2022-09-06T08:11:29;2.40;;;1.00;;
37647;SDS011;23490;53.656;10.076;2022-09-06T08:13:56;2.15;;;1.10;;
37647;SDS011;23490;53.656;10.076;2022-09-06T08:16:23;1.45;;;1.08;;
37647;SDS011;23490;53.656;10.076;2022-09-06T08:18:50;2.53;;;1.08;;
37647;SDS011;23490;53.656;10.076;2022-09-06T08:21:17;2.80;;;0.93;;
37647;SDS011;23490;53.656;10.076;2022-09-06T08:23:46;3.13;;;1.27;;
37647;SDS011;23490;53.656;10.076;2022-09-06T08:28:39;4.55;;;1.48;;
37647;SDS011;23490;53.656;10.076;2022-09-06T08:31:11;3.20;;;1.35;;
37647;SDS011;23490;53.656;10.076;2022-09-06T08:33:38;6.68;;;1.45;;
37647;SDS011;23490;53.656;10.076;2022-09-06T08:36:04;2.88;;;1.10;;
37647;SDS011;23490;53.656;10.076;2022-09-06T08:38:31;10.25;;;1.33;;
37647;SDS011;23490;53.656;10.076;2022-09-06T08:43:36;6.97;;;1.40;;
37647;SDS011;23490;53.656;10.076;2022-09-06T08:46:02;3.58;;;1.40;;
37647;SDS011;23490;53.656;10.076;2022-09-06T08:48:29;13.88;;;1.63;;
37647;SDS011;23490;53.656;10.076;2022-09-06T08:53:44;5.82;;;1.55;;
37647;SDS011;23490;53.656;10.076;2022-09-06T08:59:03;5.95;;;1.20;;
37647;SDS011;23490;53.656;10.076;2022-09-06T09:01:40;3.30;;;1.25;;
37647;SDS011;23490;53.656;10.076;2022-09-06T09:04:20;2.40;;;1.20;;
37647;SDS011;23490;53.656;10.076;2022-09-06T09:06:50;3.17;;;1.30;;
37647;SDS011;23490;53.656;10.076;2022-09-06T09:09:21;5.13;;;1.58;;
37647;SDS011;23490;53.656;10.076;2022-09-06T09:11:48;2.88;;;1.25;;
37647;SDS011;23490;53.656;10.076;2022-09-06T09:14:15;3.40;;;1.45;;
37647;SDS011;23490;53.656;10.076;2022-09-06T09:19:13;4.93;;;1.40;;
37647;SDS011;23490;53.656;10.076;2022-09-06T09:21:39;4.25;;;1.70;;
37647;SDS011;23490;53.656;10.076;2022-09-06T09:24:08;4.13;;;1.63;;
37647;SDS011;23490;53.656;10.076;2022-09-06T09:26:48;3.22;;;1.65;;
37647;SDS011;23490;53.656;10.076;2022-09-06T09:29:29;5.88;;;1.70;;
37647;SDS011;23490;53.656;10.076;2022-09-06T09:31:55;5.95;;;1.70;;
37647;SDS011;23490;53.656;10.076;2022-09-06T09:34:36;3.53;;;1.30;;
37647;SDS011;23490;53.656;10.076;2022-09-06T09:39:45;4.90;;;1.60;;
37647;SDS011;23490;53.656;10.076;2022-09-06T09:42:14;5.50;;;1.60;;
37647;SDS011;23490;53.656;10.076;2022-09-06T09:44:47;3.10;;;1.67;;
37647;SDS011;23490;53.656;10.076;2022-09-06T09:47:23;4.38;;;1.52;;
37647;SDS011;23490;53.656;10.076;2022-09-06T09:49:54;3.72;;;1.75;;
37647;SDS011;23490;53.656;10.076;2022-09-06T09:52:24;4.60;;;1.90;;
37647;SDS011;23490;53.656;10.076;2022-09-06T09:54:52;5.68;;;2.22;;
37647;SDS011;23490;53.656;10.076;2022-09-06T09:57:19;4.13;;;1.80;;
37647;SDS011;23490;53.656;10.076;2022-09-06T09:59:49;6.60;;;1.65;;
37647;SDS011;23490;53.656;10.076;2022-09-06T10:02:26;6.63;;;1.80;;
37647;SDS011;23490;53.656;10.076;2022-09-06T10:05:37;5.82;;;1.73;;
37647;SDS011;23490;53.656;10.076;2022-09-06T10:07:51;4.72;;;1.92;;
37647;SDS011;23490;53.656;10.076;2022-09-06T10:13:04;2.50;;;1.48;;
37647;SDS011;23490;53.656;10.076;2022-09-06T10:15:35;3.95;;;1.60;;
37647;SDS011;23490;53.656;10.076;2022-09-06T10:18:02;5.47;;;1.85;;
37647;SDS011;23490;53.656;10.076;2022-09-06T10:20:38;3.08;;;1.75;;
37647;SDS011;23490;53.656;10.076;2022-09-06T10:23:15;3.20;;;1.55;;
37647;SDS011;23490;53.656;10.076;2022-09-06T10:26:07;5.70;;;2.13;;
37647;SDS011;23490;53.656;10.076;2022-09-06T10:28:40;5.78;;;2.20;;
37647;SDS011;23490;53.656;10.076;2022-09-06T10:36:45;4.43;;;1.70;;
37647;SDS011;23490;53.656;10.076;2022-09-06T10:47:47;5.03;;;1.75;;
37647;SDS011;23490;53.656;10.076;2022-09-06T10:50:16;3.05;;;1.45;;
37647;SDS011;23490;53.656;10.076;2022-09-06T10:52:43;6.32;;;1.55;;
37647;SDS011;23490;53.656;10.076;2022-09-06T10:55:13;6.85;;;1.50;;
37647;SDS011;23490;53.656;10.076;2022-09-06T10:57:45;3.58;;;1.33;;
37647;SDS011;23490;53.656;10.076;2022-09-06T11:00:14;6.38;;;1.58;;
37647;SDS011;23490;53.656;10.076;2022-09-06T11:07:58;3.72;;;1.63;;
37647;SDS011;23490;53.656;10.076;2022-09-06T11:10:26;3.47;;;1.50;;
37647;SDS011;23490;53.656;10.076;2022-09-06T11:13:13;7.22;;;1.80;;
37647;SDS011;23490;53.656;10.076;2022-09-06T11:15:42;4.43;;;1.70;;
37647;SDS011;23490;53.656;10.076;2022-09-06T11:18:17;4.22;;;1.85;;
37647;SDS011;23490;53.656;10.076;2022-09-06T11:21:39;2.03;;;1.23;;
37647;SDS011;23490;53.656;10.076;2022-09-06T11:23:45;7.78;;;1.40;;
37647;SDS011;23490;53.656;10.076;2022-09-06T11:28:52;4.22;;;1.30;;
37647;SDS011;23490;53.656;10.076;2022-09-06T11:31:33;4.38;;;1.40;;
37647;SDS011;23490;53.656;10.076;2022-09-06T11:34:20;4.90;;;1.33;;
37647;SDS011;23490;53.656;10.076;2022-09-06T11:39:13;5.57;;;1.63;;
37647;SDS011;23490;53.656;10.076;2022-09-06T11:41:50;2.95;;;1.58;;
37647;SDS011;23490;53.656;10.076;2022-09-06T11:44:49;3.35;;;1.45;;
37647;SDS011;23490;53.656;10.076;2022-09-06T11:51:07;5.63;;;1.52;;
37647;SDS011;23490;53.656;10.076;2022-09-06T11:53:21;2.85;;;1.20;;
37647;SDS011;23490;53.656;10.076;2022-09-06T11:55:48;2.95;;;1.45;;
37647;SDS011;23490;53.656;10.076;2022-09-06T12:00:40;4.25;;;1.60;;
37647;SDS011;23490;53.656;10.076;2022-09-06T12:03:08;3.80;;;1.60;;
37647;SDS011;23490;53.656;10.076;2022-09-06T12:06:11;6.82;;;1.63;;
37647;SDS011;23490;53.656;10.076;2022-09-06T12:08:37;5.57;;;1.88;;
37647;SDS011;23490;53.656;10.076;2022-09-06T12:14:01;8.65;;;1.88;;
37647;SDS011;23490;53.656;10.076;2022-09-06T12:17:16;2.60;;;1.75;;
37647;SDS011;23490;53.656;10.076;2022-09-06T12:25:16;3.25;;;1.38;;
37647;SDS011;23490;53.656;10.076;2022-09-06T12:27:52;3.45;;;1.48;;
37647;SDS011;23490;53.656;10.076;2022-09-06T12:30:33;4.07;;;1.63;;
37647;SDS011;23490;53.656;10.076;2022-09-06T12:36:10;4.85;;;1.70;;
37647;SDS011;23490;53.656;10.076;2022-09-06T12:38:37;6.10;;;1.52;;
37647;SDS011;23490;53.656;10.076;2022-09-06T12:41:02;5.20;;;1.50;;
37647;SDS011;23490;53.656;10.076;2022-09-06T12:43:28;3.15;;;1.58;;
37647;SDS011;23490;53.656;10.076;2022-09-06T12:46:00;2.70;;;1.50;;
37647;SDS011;23490;53.656;10.076;2022-09-06T12:48:30;5.03;;;1.55;;
37647;SDS011;23490;53.656;10.076;2022-09-06T12:51:04;3.05;;;1.60;;
37647;SDS011;23490;53.656;10.076;2022-09-06T12:53:31;2.20;;;1.30;;
37647;SDS011;23490;53.656;10.076;2022-09-06T12:56:05;2.30;;;1.30;;
37647;SDS011;23490;53.656;10.076;2022-09-06T12:58:33;5.80;;;1.42;;
37647;SDS011;23490;53.656;10.076;2022-09-06T13:01:06;3.60;;;1.60;;
37647;SDS011;23490;53.656;10.076;2022-09-06T13:03:42;2.95;;;1.27;;
37647;SDS011;23490;53.656;10.076;2022-09-06T13:06:16;4.97;;;1.27;;
37647;SDS011;23490;53.656;10.076;2022-09-06T13:11:12;4.32;;;1.40;;
37647;SDS011;23490;53.656;10.076;2022-09-06T13:13:46;4.00;;;1.40;;
37647;SDS011;23490;53.656;10.076;2022-09-06T13:16:18;5.70;;;1.40;;
37647;SDS011;23490;53.656;10.076;2022-09-06T13:18:47;5.00;;;1.73;;
37647;SDS011;23490;53.656;10.076;2022-09-06T13:21:22;6.57;;;1.42;;
37647;SDS011;23490;53.656;10.076;2022-09-06T13:23:49;5.20;;;1.20;;
37647;SDS011;23490;53.656;10.076;2022-09-06T13:26:30;5.82;;;1.63;;
37647;SDS011;23490;53.656;10.076;2022-09-06T13:31:44;2.88;;;1.30;;
37647;SDS011;23490;53.656;10.076;2022-09-06T13:34:10;6.65;;;1.50;;
37647;SDS011;23490;53.656;10.076;2022-09-06T13:36:51;7.40;;;1.50;;
37647;SDS011;23490;53.656;10.076;2022-09-06T13:42:03;5.85;;;1.45;;
37647;SDS011;23490;53.656;10.076;2022-09-06T13:44:33;5.32;;;1.58;;
37647;SDS011;23490;53.656;10.076;2022-09-06T13:47:01;2.85;;;1.35;;
37647;SDS011;23490;53.656;10.076;2022-09-06T13:49:27;3.30;;;1.20;;
37647;SDS011;23490;53.656;10.076;2022-09-06T13:51:53;3.13;;;1.40;;
37647;SDS011;23490;53.656;10.076;2022-09-06T13:54:22;3.45;;;1.60;;
37647;SDS011;23490;53.656;10.076;2022-09-06T13:56:48;4.18;;;1.65;;
37647;SDS011;23490;53.656;10.076;2022-09-06T13:59:14;4.18;;;1.45;;
37647;SDS011;23490;53.656;10.076;2022-09-06T14:01:41;3.85;;;1.40;;
37647;SDS011;23490;53.656;10.076;2022-09-06T14:04:15;4.35;;;1.75;;
37647;SDS011;23490;53.656;10.076;2022-09-06T14:06:46;5.63;;;1.60;;
37647;SDS011;23490;53.656;10.076;2022-09-06T14:09:13;3.97;;;1.30;;
37647;SDS011;23490;53.656;10.076;2022-09-06T14:11:38;4.15;;;1.55;;
37647;SDS011;23490;53.656;10.076;2022-09-06T14:14:04;3.22;;;1.38;;
37647;SDS011;23490;53.656;10.076;2022-09-06T14:16:30;8.40;;;1.63;;
37647;SDS011;23490;53.656;10.076;2022-09-06T14:18:55;3.30;;;1.35;;
37647;SDS011;23490;53.656;10.076;2022-09-06T14:21:21;8.73;;;2.17;;
37647;SDS011;23490;53.656;10.076;2022-09-06T14:23:47;4.78;;;1.67;;
37647;SDS011;23490;53.656;10.076;2022-09-06T14:26:17;3.65;;;1.48;;
37647;SDS011;23490;53.656;10.076;2022-09-06T14:28:43;3.70;;;1.65;;
37647;SDS011;23490;53.656;10.076;2022-09-06T14:31:13;4.80;;;1.40;;
37647;SDS011;23490;53.656;10.076;2022-09-06T14:33:46;4.53;;;1.45;;
37647;SDS011;23490;53.656;10.076;2022-09-06T14:36:12;4.35;;;1.48;;
37647;SDS011;23490;53.656;10.076;2022-09-06T14:38:40;3.63;;;1.77;;
37647;SDS011;23490;53.656;10.076;2022-09-06T14:41:07;4.93;;;1.42;;
37647;SDS011;23490;53.656;10.076;2022-09-06T14:43:34;6.35;;;1.40;;
37647;SDS011;23490;53.656;10.076;2022-09-06T14:46:08;3.38;;;1.30;;
37647;SDS011;23490;53.656;10.076;2022-09-06T14:48:35;4.13;;;1.30;;
37647;SDS011;23490;53.656;10.076;2022-09-06T14:51:07;3.15;;;1.48;;
37647;SDS011;23490;53.656;10.076;2022-09-06T14:53:43;3.70;;;1.75;;
37647;SDS011;23490;53.656;10.076;2022-09-06T14:56:09;5.88;;;1.60;;
37647;SDS011;23490;53.656;10.076;2022-09-06T14:58:35;4.18;;;1.55;;
37647;SDS011;23490;53.656;10.076;2022-09-06T15:01:21;6.10;;;1.40;;
37647;SDS011;23490;53.656;10.076;2022-09-06T15:03:49;2.47;;;1.58;;
37647;SDS011;23490;53.656;10.076;2022-09-06T15:06:16;5.78;;;1.65;;
37647;SDS011;23490;53.656;10.076;2022-09-06T15:11:12;6.85;;;1.60;;
37647;SDS011;23490;53.656;10.076;2022-09-06T15:13:38;6.10;;;1.60;;
37647;SDS011;23490;53.656;10.076;2022-09-06T15:16:08;3.05;;;1.40;;
37647;SDS011;23490;53.656;10.076;2022-09-06T15:18:34;5.78;;;1.40;;
37647;SDS011;23490;53.656;10.076;2022-09-06T15:21:13;5.25;;;1.45;;
37647;SDS011;23490;53.656;10.076;2022-09-06T15:23:40;5.63;;;1.80;;
37647;SDS011;23490;53.656;10.076;2022-09-06T15:26:07;5.65;;;1.52;;
37647;SDS011;23490;53.656;10.076;2022-09-06T15:28:33;6.70;;;2.08;;
37647;SDS011;23490;53.656;10.076;2022-09-06T15:30:59;5.60;;;1.52;;
37647;SDS011;23490;53.656;10.076;2022-09-06T15:33:31;3.75;;;1.70;;
37647;SDS011;23490;53.656;10.076;2022-09-06T15:35:58;3.33;;;1.60;;
37647;SDS011;23490;53.656;10.076;2022-09-06T15:38:29;3.53;;;1.42;;
37647;SDS011;23490;53.656;10.076;2022-09-06T15:41:09;5.35;;;1.80;;
37647;SDS011;23490;53.656;10.076;2022-09-06T15:43:40;4.40;;;1.40;;
37647;SDS011;23490;53.656;10.076;2022-09-06T15:46:09;3.75;;;1.42;;
37647;SDS011;23490;53.656;10.076;2022-09-06T15:48:42;3.20;;;1.50;;
37647;SDS011;23490;53.656;10.076;2022-09-06T15:51:10;3.60;;;1.70;;
37647;SDS011;23490;53.656;10.076;2022-09-06T15:53:37;4.72;;;1.50;;
37647;SDS011;23490;53.656;10.076;2022-09-06T15:56:03;2.88;;;1.30;;
37647;SDS011;23490;53.656;10.076;2022-09-06T15:58:30;4.35;;;1.30;;
37647;SDS011;23490;53.656;10.076;2022-09-06T16:03:34;3.00;;;1.30;;
37647;SDS011;23490;53.656;10.076;2022-09-06T16:06:05;3.20;;;1.30;;
37647;SDS011;23490;53.656;10.076;2022-09-06T16:08:33;2.65;;;1.35;;
37647;SDS011;23490;53.656;10.076;2022-09-06T16:10:59;3.03;;;1.33;;
37647;SDS011;23490;53.656;10.076;2022-09-06T16:13:30;3.33;;;1.88;;
37647;SDS011;23490;53.656;10.076;2022-09-06T16:15:57;6.65;;;1.33;;
37647;SDS011;23490;53.656;10.076;2022-09-06T16:18:24;2.40;;;1.40;;
37647;SDS011;23490;53.656;10.076;2022-09-06T16:20:49;2.83;;;1.40;;
37647;SDS011;23490;53.656;10.076;2022-09-06T16:23:15;3.05;;;1.60;;
37647;SDS011;23490;53.656;10.076;2022-09-06T16:25:41;4.70;;;1.50;;